Time;durP1;ratioP1;P1;durP2;ratioP2;P2;SDS_P1;SDS_P2;PMS_P1;PMS_P2;Temp;Humidity;BMP_temperature;BMP_pressure;BME280_temperature;BME280_humidity;BME280_pressure;Samples;Min_cycle;Max_cycle;Signal;HPM_P1;HPM_P2
2023/03/16 00:02:05;;;;;;;10.73;7.63;;;6.20;95.90;;;;;;4915544;29;20415;-73
2023/03/16 00:04:30;;;;;;;9.27;8.38;;;6.20;95.90;;;;;;4916271;29;20773;-73
2023/03/16 00:06:57;;;;;;;8.67;7.80;;;6.10;95.60;;;;;;4914262;29;20287;-73
2023/03/16 00:09:29;;;;;;;9.83;7.30;;;6.10;95.70;;;;;;4916170;29;20418;-73
2023/03/16 00:11:57;;;;;;;9.00;8.07;;;6.20;95.90;;;;;;4915757;29;20416;-73
2023/03/16 00:14:24;;;;;;;8.70;7.80;;;6.10;95.70;;;;;;4916024;29;20425;-73
2023/03/16 00:16:50;;;;;;;9.57;7.70;;;6.10;95.80;;;;;;4918478;29;20967;-73
2023/03/16 00:19:15;;;;;;;11.33;8.40;;;6.20;95.90;;;;;;4918357;29;20180;-73
2023/03/16 00:21:41;;;;;;;11.10;7.83;;;6.10;95.80;;;;;;4919131;29;20295;-75
2023/03/16 00:24:08;;;;;;;10.20;7.23;;;6.10;95.80;;;;;;4918497;29;20274;-73
2023/03/16 00:26:33;;;;;;;8.85;7.70;;;6.10;95.70;;;;;;4919616;29;20424;-73
2023/03/16 00:29:00;;;;;;;9.53;7.10;;;6.00;96.20;;;;;;4933575;29;20625;-73
2023/03/16 00:31:26;;;;;;;8.03;6.67;;;6.10;96.40;;;;;;4919681;29;20535;-73
2023/03/16 00:33:52;;;;;;;8.43;7.43;;;6.00;96.30;;;;;;4919014;29;20398;-73
2023/03/16 00:36:18;;;;;;;14.00;8.00;;;6.10;96.40;;;;;;4919348;29;20499;-73
2023/03/16 00:38:44;;;;;;;10.20;6.93;;;6.10;96.20;;;;;;4918676;29;20403;-74
2023/03/16 00:41:13;;;;;;;9.75;8.27;;;6.10;96.30;;;;;;4919199;29;20215;-73
2023/03/16 00:43:40;;;;;;;8.57;7.67;;;6.10;96.40;;;;;;4919137;29;20223;-73
2023/03/16 00:46:16;;;;;;;12.03;8.30;;;6.20;96.10;;;;;;4918591;29;20442;-73
2023/03/16 00:48:44;;;;;;;9.95;7.07;;;6.10;96.10;;;;;;4919167;29;20433;-73
2023/03/16 00:51:16;;;;;;;10.70;7.83;;;6.10;96.20;;;;;;4919056;29;20550;-73
2023/03/16 00:53:43;;;;;;;8.83;7.53;;;6.10;96.10;;;;;;4918727;29;20477;-73
2023/03/16 00:56:10;;;;;;;10.82;8.25;;;6.10;96.00;;;;;;4933848;29;20424;-73
2023/03/16 00:58:39;;;;;;;7.50;6.45;;;6.10;95.90;;;;;;4918946;29;20240;-73
2023/03/16 01:01:12;;;;;;;9.20;7.07;;;6.10;95.90;;;;;;4917984;29;20606;-73
2023/03/16 01:03:38;;;;;;;10.33;7.03;;;6.10;96.20;;;;;;4919143;29;20429;-73
2023/03/16 01:06:14;;;;;;;7.47;6.78;;;6.10;95.90;;;;;;4918291;29;20986;-73
2023/03/16 01:08:40;;;;;;;8.17;6.37;;;6.10;95.60;;;;;;4918605;29;20202;-73
2023/03/16 01:11:11;;;;;;;9.60;6.70;;;6.20;95.80;;;;;;4918397;29;20419;-73
2023/03/16 01:13:38;;;;;;;9.70;6.70;;;6.20;95.90;;;;;;4918492;29;20818;-73
2023/03/16 01:16:04;;;;;;;7.00;6.03;;;6.20;95.70;;;;;;4918010;29;20425;-73
2023/03/16 01:18:33;;;;;;;7.67;6.30;;;6.20;95.00;;;;;;4918724;29;20923;-73
2023/03/16 01:21:09;;;;;;;7.20;6.10;;;6.20;95.50;;;;;;4917804;29;20570;-73
2023/03/16 01:23:36;;;;;;;6.30;5.67;;;6.20;95.40;;;;;;4918227;29;20418;-73
2023/03/16 01:26:02;;;;;;;7.25;6.00;;;6.30;95.10;;;;;;4917804;29;20440;-73
2023/03/16 01:28:29;;;;;;;7.13;5.90;;;6.30;94.90;;;;;;4918453;29;20180;-73
2023/03/16 01:31:03;;;;;;;4.73;4.40;;;6.40;94.60;;;;;;4917590;29;20390;-73
2023/03/16 01:33:29;;;;;;;5.07;4.67;;;6.40;94.30;;;;;;4918497;29;20806;-73
2023/03/16 01:36:00;;;;;;;5.23;4.50;;;6.40;93.60;;;;;;4917749;29;20416;-73
2023/03/16 01:38:26;;;;;;;6.40;5.03;;;6.50;93.00;;;;;;4918018;29;20260;-73
2023/03/16 01:40:53;;;;;;;4.70;4.27;;;6.60;92.80;;;;;;4917506;29;20563;-73
2023/03/16 01:43:21;;;;;;;5.13;4.60;;;6.60;92.30;;;;;;4917871;29;20308;-73
2023/03/16 01:46:05;;;;;;;6.67;4.63;;;6.70;92.30;;;;;;4917560;29;20418;-74
2023/03/16 01:48:42;;;;;;;4.63;4.23;;;6.70;91.80;;;;;;4917773;29;20912;-73
2023/03/16 01:51:16;;;;;;;6.40;5.20;;;6.80;91.70;;;;;;4932098;29;20755;-73
2023/03/16 01:53:45;;;;;;;5.20;4.60;;;6.70;91.40;;;;;;4918074;29;20417;-73
2023/03/16 01:56:14;;;;;;;5.60;4.60;;;6.70;91.30;;;;;;4917104;29;20771;-73
2023/03/16 01:58:42;;;;;;;4.73;4.30;;;6.60;91.20;;;;;;4917838;29;20419;-73
2023/03/16 02:01:09;;;;;;;5.10;4.60;;;6.60;91.10;;;;;;4917155;29;20495;-73
2023/03/16 02:03:35;;;;;;;4.77;4.27;;;6.80;91.00;;;;;;4917811;29;20448;-73
2023/03/16 02:06:10;;;;;;;5.20;4.77;;;6.70;90.40;;;;;;4916858;29;20443;-73
2023/03/16 02:08:37;;;;;;;6.13;3.80;;;6.40;91.00;;;;;;4917450;29;20537;-73
2023/03/16 02:11:05;;;;;;;6.57;4.60;;;6.40;91.30;;;;;;4916790;29;20423;-73
2023/03/16 02:13:35;;;;;;;5.33;4.80;;;6.30;90.90;;;;;;4917811;29;20181;-74
2023/03/16 02:16:04;;;;;;;4.87;4.40;;;6.30;90.90;;;;;;4916947;29;20417;-73
2023/03/16 02:18:30;;;;;;;6.03;4.00;;;6.30;90.70;;;;;;4917518;29;20481;-73
2023/03/16 02:21:12;;;;;;;5.00;3.87;;;6.30;90.80;;;;;;4916776;29;20450;-73
2023/03/16 02:23:38;;;;;;;4.87;3.90;;;6.40;91.10;;;;;;4917509;29;20413;-73
2023/03/16 02:26:27;;;;;;;5.70;5.20;;;6.70;90.30;;;;;;4916812;29;20406;-73
2023/03/16 02:29:12;;;;;;;4.23;3.90;;;6.80;89.70;;;;;;4916757;29;20161;-73
2023/03/16 02:31:38;;;;;;;4.50;4.10;;;6.60;88.50;;;;;;4917326;29;20508;-73
2023/03/16 02:34:04;;;;;;;6.20;4.23;;;6.60;88.50;;;;;;4916360;29;20770;-73
2023/03/16 02:36:32;;;;;;;8.33;4.13;;;6.50;88.90;;;;;;4917131;29;20410;-73
2023/03/16 02:38:58;;;;;;;4.83;4.43;;;6.50;88.60;;;;;;4916057;29;20411;-73
2023/03/16 02:41:23;;;;;;;4.73;4.30;;;6.50;88.30;;;;;;4917000;29;20510;-73
2023/03/16 02:44:14;;;;;;;5.23;4.30;;;6.40;88.80;;;;;;4916547;29;20223;-73
2023/03/16 02:46:42;;;;;;;4.40;4.00;;;6.40;89.30;;;;;;4915820;29;20578;-73
2023/03/16 02:49:23;;;;;;;6.00;4.60;;;6.50;88.50;;;;;;4916433;29;20504;-73
2023/03/16 02:51:50;;;;;;;4.90;4.50;;;6.60;88.10;;;;;;4917044;29;20459;-72
2023/03/16 02:54:15;;;;;;;3.70;3.40;;;6.60;86.90;;;;;;4916946;29;20425;-73
2023/03/16 02:56:43;;;;;;;3.77;3.40;;;6.60;86.60;;;;;;4931544;29;20408;-73
2023/03/16 02:59:10;;;;;;;4.80;4.40;;;6.70;86.90;;;;;;4916188;29;20625;-73
2023/03/16 03:01:36;;;;;;;4.40;4.00;;;6.60;86.30;;;;;;4916689;29;20468;-73
2023/03/16 03:04:03;;;;;;;4.07;3.73;;;6.70;86.50;;;;;;4916261;29;20733;-73
2023/03/16 03:06:31;;;;;;;3.80;3.50;;;6.70;86.10;;;;;;4916553;29;20184;-73
2023/03/16 03:08:58;;;;;;;4.87;4.37;;;6.50;85.60;;;;;;4916071;29;20431;-73
2023/03/16 03:11:23;;;;;;;4.13;3.70;;;6.60;86.00;;;;;;4916521;29;20483;-73
2023/03/16 03:13:49;;;;;;;5.73;3.70;;;6.70;86.10;;;;;;4917209;29;20452;-73
2023/03/16 03:16:15;;;;;;;3.93;3.63;;;6.70;85.90;;;;;;4930759;29;20212;-72
2023/03/16 03:18:41;;;;;;;4.13;3.73;;;6.60;85.50;;;;;;4916610;29;20395;-73
2023/03/16 03:21:07;;;;;;;4.50;4.07;;;6.50;85.70;;;;;;4930567;29;20267;-72
2023/03/16 03:23:34;;;;;;;4.20;3.90;;;6.50;86.70;;;;;;4916469;29;20232;-73
2023/03/16 03:26:01;;;;;;;4.70;3.57;;;6.60;86.60;;;;;;4915918;29;20207;-73
2023/03/16 03:28:27;;;;;;;4.73;4.17;;;6.60;86.00;;;;;;4916348;29;20522;-73
2023/03/16 03:30:53;;;;;;;4.27;3.97;;;6.50;85.80;;;;;;4915923;29;20494;-74
2023/03/16 03:33:21;;;;;;;3.97;3.67;;;6.60;86.00;;;;;;4916310;29;20772;-73
2023/03/16 03:35:52;;;;;;;3.97;3.67;;;6.60;86.00;;;;;;4916446;29;20275;-73
2023/03/16 03:38:18;;;;;;;3.20;3.00;;;6.50;85.40;;;;;;4916533;29;20928;-73
2023/03/16 03:40:44;;;;;;;3.50;3.30;;;6.40;87.50;;;;;;4916537;29;20584;-73
2023/03/16 03:43:09;;;;;;;3.80;3.40;;;6.60;87.30;;;;;;4930142;29;20267;-73
2023/03/16 03:45:35;;;;;;;4.17;3.60;;;6.70;86.20;;;;;;4916740;29;20169;-73
2023/03/16 03:48:01;;;;;;;3.97;3.60;;;6.70;85.30;;;;;;4915718;29;20183;-72
2023/03/16 03:50:26;;;;;;;4.00;3.20;;;6.60;85.90;;;;;;4916996;29;20187;-73
2023/03/16 03:52:52;;;;;;;4.23;3.83;;;6.70;86.50;;;;;;4920124;29;20185;-73
2023/03/16 03:55:18;;;;;;;6.20;3.23;;;6.90;86.20;;;;;;4918174;29;20181;-73
2023/03/16 03:57:43;;;;;;;5.27;3.70;;;6.90;85.50;;;;;;4920017;29;20237;-73
2023/03/16 04:00:10;;;;;;;5.50;3.93;;;7.10;85.30;;;;;;4919434;29;20275;-73
2023/03/16 04:02:37;;;;;;;4.63;3.40;;;7.10;84.70;;;;;;4920030;29;20180;-73
2023/03/16 04:05:03;;;;;;;3.70;3.50;;;6.80;83.80;;;;;;4919069;29;20774;-73
2023/03/16 04:07:29;;;;;;;3.67;3.40;;;6.80;85.00;;;;;;4919881;29;20401;-73
2023/03/16 04:09:55;;;;;;;4.00;3.70;;;6.80;83.90;;;;;;4919402;29;20432;-75
2023/03/16 04:12:21;;;;;;;3.50;3.30;;;6.80;85.00;;;;;;4934527;29;20176;-73
2023/03/16 04:14:46;;;;;;;3.70;3.13;;;6.80;85.30;;;;;;4919763;29;20215;-73
2023/03/16 04:17:15;;;;;;;4.40;4.00;;;6.90;85.10;;;;;;4919173;29;20189;-73
2023/03/16 04:19:40;;;;;;;3.83;3.53;;;7.00;84.50;;;;;;4919555;29;20445;-73
2023/03/16 04:22:06;;;;;;;3.67;3.40;;;6.90;84.00;;;;;;4919025;29;20420;-73
2023/03/16 04:24:33;;;;;;;5.00;3.90;;;6.90;84.30;;;;;;4919600;29;20613;-72
2023/03/16 04:27:01;;;;;;;3.77;3.47;;;7.00;84.30;;;;;;4918964;29;20192;-73
2023/03/16 04:29:27;;;;;;;5.30;3.40;;;7.10;84.00;;;;;;4919536;29;20413;-73
2023/03/16 04:31:53;;;;;;;3.70;3.37;;;7.20;83.10;;;;;;4919530;29;20415;-73
2023/03/16 04:34:23;;;;;;;4.17;3.77;;;7.00;82.40;;;;;;4917543;29;20625;-73
2023/03/16 04:36:53;;;;;;;3.90;3.60;;;6.70;82.80;;;;;;4919117;29;20485;-73
2023/03/16 04:39:22;;;;;;;3.67;3.40;;;6.70;84.30;;;;;;4918710;29;20413;-72
2023/03/16 04:41:47;;;;;;;3.40;3.20;;;6.50;84.30;;;;;;4919248;29;20435;-73
2023/03/16 04:44:13;;;;;;;7.40;6.47;;;6.70;85.90;;;;;;4918590;29;20467;-73
2023/03/16 04:46:39;;;;;;;2.70;2.50;;;6.50;85.20;;;;;;4933878;29;20205;-73
2023/03/16 04:49:08;;;;;;;3.10;2.70;;;6.50;85.60;;;;;;4918512;29;20507;-73
2023/03/16 04:51:36;;;;;;;6.63;6.10;;;6.70;85.90;;;;;;4919044;29;20420;-73
2023/03/16 04:54:02;;;;;;;5.20;4.70;;;6.80;85.30;;;;;;4918468;29;20495;-73
2023/03/16 04:56:28;;;;;;;4.80;3.90;;;6.90;85.30;;;;;;4918985;29;20422;-72
2023/03/16 04:58:55;;;;;;;3.00;2.80;;;6.70;84.60;;;;;;4919016;29;20410;-73
2023/03/16 05:01:21;;;;;;;5.23;4.83;;;6.70;85.60;;;;;;4917849;29;20447;-73
2023/03/16 05:03:48;;;;;;;4.00;3.40;;;6.80;86.00;;;;;;4917633;29;20500;-73
2023/03/16 05:06:14;;;;;;;3.60;3.40;;;6.80;86.20;;;;;;4933183;29;20421;-73
2023/03/16 05:08:40;;;;;;;4.47;4.07;;;7.00;85.90;;;;;;4918755;29;20384;-72
2023/03/16 05:11:06;;;;;;;6.30;5.80;;;6.80;86.00;;;;;;4932788;29;20515;-73
2023/03/16 05:13:32;;;;;;;5.17;4.67;;;6.90;87.20;;;;;;4918729;29;20218;-72
2023/03/16 05:15:58;;;;;;;6.57;6.00;;;6.90;87.30;;;;;;4918664;29;20503;-73
2023/03/16 05:18:24;;;;;;;4.67;4.20;;;6.80;87.00;;;;;;4918875;29;20408;-73
2023/03/16 05:20:54;;;;;;;5.30;4.80;;;6.90;87.40;;;;;;4918536;29;20530;-72
2023/03/16 05:23:21;;;;;;;6.30;4.90;;;6.80;87.40;;;;;;4932578;29;20188;-73
2023/03/16 05:25:48;;;;;;;5.03;4.53;;;6.80;88.00;;;;;;4918514;29;20503;-73
2023/03/16 05:28:14;;;;;;;7.23;6.40;;;6.90;87.60;;;;;;4917901;29;20472;-72
2023/03/16 05:30:41;;;;;;;6.80;6.17;;;6.60;87.30;;;;;;4918469;29;20770;-73
2023/03/16 05:33:07;;;;;;;5.83;5.13;;;6.50;88.70;;;;;;4917822;29;20409;-73
2023/03/16 05:35:33;;;;;;;5.50;4.70;;;6.70;89.20;;;;;;4917265;29;20917;-73
2023/03/16 05:37:59;;;;;;;5.50;5.00;;;6.60;89.20;;;;;;4918235;29;20436;-74
2023/03/16 05:40:25;;;;;;;6.70;6.03;;;6.50;89.30;;;;;;4917903;29;20457;-74
2023/03/16 05:42:55;;;;;;;7.13;5.63;;;6.60;89.80;;;;;;4917815;29;20195;-74
2023/03/16 05:45:21;;;;;;;5.27;4.87;;;6.50;89.30;;;;;;4917928;29;20694;-74
2023/03/16 05:47:47;;;;;;;5.30;4.07;;;6.70;89.80;;;;;;4918130;29;20432;-74
2023/03/16 05:50:15;;;;;;;5.63;5.13;;;6.80;89.50;;;;;;4917761;29;20399;-74
2023/03/16 05:52:43;;;;;;;5.20;4.70;;;6.70;88.80;;;;;;4918016;29;20177;-74
2023/03/16 05:55:10;;;;;;;7.50;6.97;;;6.90;89.00;;;;;;4917432;29;20450;-74
2023/03/16 05:57:36;;;;;;;6.10;5.50;;;6.60;89.30;;;;;;4918010;29;20482;-74
2023/03/16 06:00:13;;;;;;;7.30;6.70;;;6.80;89.60;;;;;;4931704;29;20584;-76
2023/03/16 06:02:40;;;;;;;8.00;5.30;;;6.80;89.30;;;;;;4918203;29;20790;-74
2023/03/16 06:05:06;;;;;;;5.40;5.00;;;6.80;88.80;;;;;;4917243;29;20500;-74
2023/03/16 06:07:33;;;;;;;6.60;5.80;;;6.60;88.40;;;;;;4917641;29;20391;-74
2023/03/16 06:09:58;;;;;;;5.30;4.80;;;6.40;90.00;;;;;;4932015;29;20897;-74
2023/03/16 06:12:24;;;;;;;5.20;4.70;;;6.40;90.20;;;;;;4916629;29;20422;-74
2023/03/16 06:14:50;;;;;;;7.40;5.70;;;6.50;90.40;;;;;;4917215;29;20175;-74
2023/03/16 06:17:15;;;;;;;5.73;5.37;;;6.60;90.20;;;;;;4917010;29;20195;-73
2023/03/16 06:19:41;;;;;;;5.43;4.93;;;6.60;90.10;;;;;;4917166;29;20205;-73
2023/03/16 06:22:07;;;;;;;4.97;4.57;;;6.80;90.00;;;;;;4916816;29;20263;-74
2023/03/16 06:24:33;;;;;;;7.33;6.83;;;6.70;89.60;;;;;;4917381;29;20204;-73
2023/03/16 06:26:59;;;;;;;5.07;4.67;;;6.90;89.70;;;;;;4916184;29;20815;-73
2023/03/16 06:29:25;;;;;;;4.60;4.20;;;6.90;88.70;;;;;;4916760;29;20425;-73
2023/03/16 06:31:51;;;;;;;6.23;5.30;;;6.80;88.80;;;;;;4917717;29;20188;-73
2023/03/16 06:34:17;;;;;;;6.00;5.07;;;6.80;89.40;;;;;;4930935;29;20395;-73
2023/03/16 06:36:45;;;;;;;6.50;6.00;;;6.90;89.60;;;;;;4931752;29;20392;-73
2023/03/16 06:39:11;;;;;;;6.70;6.00;;;6.70;89.50;;;;;;4916911;29;20417;-74
2023/03/16 06:41:37;;;;;;;8.10;7.40;;;6.70;90.00;;;;;;4916737;29;20475;-73
2023/03/16 06:44:04;;;;;;;5.17;4.67;;;6.70;90.50;;;;;;4916814;29;20231;-73
2023/03/16 06:46:32;;;;;;;6.30;5.90;;;6.90;90.10;;;;;;4917061;29;20440;-73
2023/03/16 06:48:59;;;;;;;5.80;5.00;;;7.00;89.70;;;;;;4916951;29;20440;-73
2023/03/16 06:51:26;;;;;;;6.80;6.20;;;6.70;89.40;;;;;;4915818;29;20685;-73
2023/03/16 06:53:51;;;;;;;5.37;4.97;;;6.60;90.40;;;;;;4916592;29;20469;-73
2023/03/16 06:56:17;;;;;;;6.07;5.40;;;6.50;90.60;;;;;;4916634;29;20793;-73
2023/03/16 06:58:43;;;;;;;4.63;4.17;;;6.60;90.60;;;;;;4916920;29;20183;-73
2023/03/16 07:01:09;;;;;;;6.40;4.87;;;6.60;90.70;;;;;;4916202;29;20458;-74
2023/03/16 07:03:34;;;;;;;6.13;5.40;;;6.60;90.50;;;;;;4917060;29;20184;-74
2023/03/16 07:06:00;;;;;;;5.23;4.57;;;6.60;90.60;;;;;;4916522;29;20180;-74
2023/03/16 07:08:26;;;;;;;6.83;6.20;;;6.70;90.70;;;;;;4916290;29;20191;-74
2023/03/16 07:10:53;;;;;;;5.77;5.27;;;6.70;90.40;;;;;;4931523;29;20528;-73
2023/03/16 07:13:19;;;;;;;6.50;6.07;;;6.80;90.60;;;;;;4930751;29;20459;-74
2023/03/16 07:15:45;;;;;;;5.73;5.23;;;6.90;90.80;;;;;;4916693;29;20476;-74
2023/03/16 07:18:13;;;;;;;5.00;4.60;;;7.00;90.50;;;;;;4915979;29;20421;-74
2023/03/16 07:20:39;;;;;;;5.80;5.10;;;7.00;90.00;;;;;;4916503;29;20207;-74
2023/03/16 07:23:05;;;;;;;5.97;5.30;;;6.90;89.70;;;;;;4916583;29;20483;-74
2023/03/16 07:25:30;;;;;;;6.73;4.90;;;6.80;90.20;;;;;;4915767;29;20625;-74
2023/03/16 07:27:56;;;;;;;5.73;5.23;;;7.00;90.50;;;;;;4916525;29;20176;-74
2023/03/16 07:30:24;;;;;;;6.90;6.20;;;7.20;90.40;;;;;;4915899;29;20514;-74
2023/03/16 07:32:50;;;;;;;6.23;5.63;;;7.30;89.90;;;;;;4915205;29;20806;-74
2023/03/16 07:35:19;;;;;;;5.50;5.00;;;7.40;89.40;;;;;;4915806;29;20398;-74
2023/03/16 07:37:44;;;;;;;5.43;5.03;;;7.40;88.70;;;;;;4916455;29;20418;-74
2023/03/16 07:40:10;;;;;;;6.23;5.63;;;7.40;89.20;;;;;;4915685;29;20576;-74
2023/03/16 07:42:36;;;;;;;5.37;4.67;;;7.30;88.20;;;;;;4916676;29;20268;-74
2023/03/16 07:45:03;;;;;;;5.13;4.40;;;7.10;88.50;;;;;;4915965;29;20907;-74
2023/03/16 07:47:30;;;;;;;6.07;5.57;;;7.30;88.60;;;;;;4915715;29;20566;-74
2023/03/16 07:49:56;;;;;;;6.33;5.87;;;7.30;87.70;;;;;;4916572;29;20439;-74
2023/03/16 07:52:22;;;;;;;6.00;5.40;;;7.50;87.70;;;;;;4915598;29;20413;-74
2023/03/16 07:54:48;;;;;;;4.90;4.50;;;7.50;86.70;;;;;;4916288;29;20451;-74
2023/03/16 07:57:14;;;;;;;4.73;3.67;;;7.50;87.10;;;;;;4915422;29;20805;-74
2023/03/16 07:59:40;;;;;;;5.33;4.93;;;7.70;86.10;;;;;;4916180;29;20257;-74
2023/03/16 08:02:11;;;;;;;6.60;4.30;;;7.70;85.60;;;;;;4915978;29;20192;-74
2023/03/16 08:04:37;;;;;;;4.90;4.10;;;7.90;85.00;;;;;;4915913;29;20981;-74
2023/03/16 08:07:02;;;;;;;4.47;4.07;;;7.80;83.80;;;;;;4916378;29;20506;-74
2023/03/16 08:09:28;;;;;;;4.50;4.10;;;7.80;84.30;;;;;;4915548;29;20212;-74
2023/03/16 08:11:54;;;;;;;5.10;4.07;;;7.80;83.90;;;;;;4930588;29;20189;-74
2023/03/16 08:14:19;;;;;;;4.37;3.97;;;7.90;85.00;;;;;;4914525;29;20194;-75
2023/03/16 08:16:46;;;;;;;4.47;4.07;;;8.00;83.60;;;;;;4916037;29;20642;-74
2023/03/16 08:19:12;;;;;;;4.17;3.70;;;8.00;82.90;;;;;;4915457;29;20206;-75
2023/03/16 08:21:37;;;;;;;4.97;4.13;;;8.00;82.70;;;;;;4916006;29;20552;-75
2023/03/16 08:24:03;;;;;;;5.80;4.53;;;8.10;82.50;;;;;;4915968;29;20442;-73
2023/03/16 08:26:29;;;;;;;5.00;4.60;;;8.30;83.50;;;;;;4915286;29;20258;-74
2023/03/16 08:28:54;;;;;;;4.67;4.27;;;8.30;82.20;;;;;;4915945;29;20183;-74
2023/03/16 08:31:22;;;;;;;5.23;4.60;;;8.20;82.70;;;;;;4930069;29;20595;-74
2023/03/16 08:33:48;;;;;;;4.90;4.50;;;8.10;81.90;;;;;;4915814;29;20189;-74
2023/03/16 08:36:15;;;;;;;5.97;4.33;;;8.20;82.50;;;;;;4915941;29;20485;-74
2023/03/16 08:38:42;;;;;;;3.93;3.63;;;8.30;82.10;;;;;;4919100;29;20765;-74
2023/03/16 08:41:08;;;;;;;4.67;4.33;;;8.30;83.00;;;;;;4919259;29;20470;-74
2023/03/16 08:43:36;;;;;;;8.80;4.00;;;8.30;82.20;;;;;;4918301;29;20474;-74
2023/03/16 08:46:04;;;;;;;4.20;3.90;;;8.30;81.80;;;;;;4919234;29;20777;-74
2023/03/16 08:48:32;;;;;;;3.73;3.40;;;8.30;81.60;;;;;;4918280;29;20414;-74
2023/03/16 08:51:04;;;;;;;4.43;3.73;;;8.20;82.40;;;;;;4919130;29;20415;-74
2023/03/16 08:53:30;;;;;;;4.13;3.83;;;8.10;82.30;;;;;;4918617;29;20403;-74
2023/03/16 08:56:07;;;;;;;4.73;3.93;;;8.10;82.00;;;;;;4919103;29;20970;-74
2023/03/16 08:58:34;;;;;;;4.13;3.83;;;8.20;82.10;;;;;;4917947;29;20425;-74
2023/03/16 09:01:01;;;;;;;3.50;3.20;;;8.30;82.20;;;;;;4918571;29;20466;-74
2023/03/16 09:03:27;;;;;;;5.13;3.33;;;8.20;82.40;;;;;;4917762;29;20775;-74
2023/03/16 09:05:59;;;;;;;4.00;3.70;;;8.40;83.60;;;;;;4933569;29;20584;-74
2023/03/16 09:08:25;;;;;;;4.80;4.40;;;8.40;82.40;;;;;;4918269;29;20171;-74
2023/03/16 09:11:02;;;;;;;5.60;4.00;;;8.50;82.20;;;;;;4918870;29;20421;-74
2023/03/16 09:13:29;;;;;;;3.70;3.50;;;8.20;81.20;;;;;;4918315;29;20249;-74
2023/03/16 09:15:55;;;;;;;3.90;3.60;;;8.30;83.00;;;;;;4918815;29;20447;-74
2023/03/16 09:18:24;;;;;;;5.70;5.40;;;8.40;83.50;;;;;;4918151;29;20448;-74
2023/03/16 09:20:51;;;;;;;3.87;3.57;;;8.60;82.30;;;;;;4918287;29;21005;-74
2023/03/16 09:23:18;;;;;;;5.80;4.47;;;8.70;81.80;;;;;;4918008;29;20411;-74
2023/03/16 09:25:44;;;;;;;4.80;4.40;;;8.50;81.20;;;;;;4918514;29;20389;-74
2023/03/16 09:28:10;;;;;;;4.30;4.00;;;8.40;82.30;;;;;;4918538;29;20524;-74
2023/03/16 09:30:36;;;;;;;4.10;3.70;;;8.60;82.50;;;;;;4917859;29;20549;-74
2023/03/16 09:33:03;;;;;;;6.10;4.60;;;8.70;82.40;;;;;;4918732;29;20736;-74
2023/03/16 09:35:29;;;;;;;4.00;3.70;;;8.60;81.10;;;;;;4917761;29;20419;-74
2023/03/16 09:37:56;;;;;;;4.03;3.70;;;8.70;82.20;;;;;;4918368;29;20411;-74
2023/03/16 09:40:25;;;;;;;5.03;4.73;;;8.70;81.30;;;;;;4917650;29;20474;-74
2023/03/16 09:43:07;;;;;;;3.87;3.57;;;8.60;81.50;;;;;;4918311;29;20419;-74
2023/03/16 09:45:56;;;;;;;3.77;3.50;;;8.50;81.50;;;;;;4917675;29;20454;-74
2023/03/16 09:48:24;;;;;;;4.03;3.70;;;8.60;82.10;;;;;;4916422;29;20414;-74
2023/03/16 09:50:52;;;;;;;4.30;3.87;;;8.50;82.00;;;;;;4917183;29;20758;-74
2023/03/16 09:53:28;;;;;;;3.97;3.37;;;8.70;82.80;;;;;;4917428;29;20418;-74
2023/03/16 09:56:18;;;;;;;4.17;3.83;;;8.80;82.10;;;;;;4918003;29;20411;-74
2023/03/16 09:58:44;;;;;;;4.63;4.20;;;9.00;81.70;;;;;;4918190;29;20855;-74
2023/03/16 10:01:34;;;;;;;4.20;3.90;;;9.20;83.00;;;;;;4917814;29;20932;-74
2023/03/16 10:04:39;;;;;;;4.00;3.70;;;9.10;80.60;;;;;;4917970;29;20411;-74
2023/03/16 10:07:11;;;;;;;3.93;3.63;;;9.20;82.10;;;;;;4859400;29;20565;-74
2023/03/16 10:09:57;;;;;;;4.67;4.33;;;9.50;80.80;;;;;;4908114;29;20980;-74
2023/03/16 10:12:36;;;;;;;4.83;4.43;;;9.90;81.60;;;;;;4917070;29;20807;-74
2023/03/16 10:15:13;;;;;;;3.87;3.57;;;10.10;77.30;;;;;;4917493;29;20487;-73
2023/03/16 10:17:52;;;;;;;3.80;3.50;;;10.40;77.90;;;;;;4917082;29;20461;-74
2023/03/16 10:20:21;;;;;;;4.20;3.90;;;10.60;78.90;;;;;;4917202;29;20670;-74
2023/03/16 10:22:51;;;;;;;3.87;3.57;;;10.60;76.20;;;;;;4917464;29;20467;-74
2023/03/16 10:25:48;;;;;;;3.83;3.50;;;10.60;74.60;;;;;;4917333;29;20486;-74
2023/03/16 10:28:30;;;;;;;4.00;3.70;;;10.90;74.70;;;;;;4916315;29;20434;-74
2023/03/16 10:30:59;;;;;;;3.90;3.70;;;11.10;73.90;;;;;;4917209;29;20410;-74
2023/03/16 10:33:33;;;;;;;3.80;3.50;;;11.20;72.70;;;;;;4916674;29;20426;-74
2023/03/16 10:36:37;;;;;;;4.13;3.93;;;11.20;72.50;;;;;;4917505;29;20501;-75
2023/03/16 10:39:06;;;;;;;4.43;4.03;;;10.90;72.10;;;;;;4885060;29;20966;-75
2023/03/16 10:41:38;;;;;;;4.87;4.47;;;10.60;72.30;;;;;;4916423;29;20490;-74
2023/03/16 10:44:22;;;;;;;4.13;3.83;;;10.80;74.00;;;;;;4917186;29;20477;-75
2023/03/16 10:46:52;;;;;;;6.53;6.13;;;10.90;73.90;;;;;;4917189;29;20406;-75
2023/03/16 10:49:21;;;;;;;4.73;4.40;;;11.00;73.50;;;;;;4917031;29;20408;-76
2023/03/16 10:51:47;;;;;;;6.00;5.60;;;11.00;73.10;;;;;;4917278;29;20437;-75
2023/03/16 10:54:28;;;;;;;4.57;4.37;;;10.70;72.40;;;;;;4916996;29;20901;-75
2023/03/16 10:56:55;;;;;;;5.83;5.43;;;10.30;73.30;;;;;;4917190;29;20165;-75
2023/03/16 10:59:30;;;;;;;4.50;4.03;;;10.40;74.90;;;;;;4915969;29;20522;-75
2023/03/16 11:01:57;;;;;;;4.60;4.20;;;10.50;74.80;;;;;;4916667;29;20471;-75
2023/03/16 11:04:23;;;;;;;4.17;3.87;;;10.60;75.20;;;;;;4916338;29;20505;-75
2023/03/16 11:06:56;;;;;;;5.40;5.10;;;10.50;75.30;;;;;;4916666;29;20426;-74
2023/03/16 11:09:26;;;;;;;5.37;4.87;;;10.30;75.60;;;;;;4915978;29;20501;-75
2023/03/16 11:11:52;;;;;;;4.53;4.13;;;10.30;76.90;;;;;;4916534;29;20425;-73
2023/03/16 11:14:22;;;;;;;3.87;3.57;;;10.40;76.30;;;;;;4916589;29;20418;-74
2023/03/16 11:17:03;;;;;;;4.07;3.77;;;10.20;76.90;;;;;;4916633;29;20429;-74
2023/03/16 11:19:35;;;;;;;3.97;3.57;;;10.00;76.20;;;;;;4916102;29;20419;-74
2023/03/16 11:22:15;;;;;;;5.13;4.67;;;9.90;79.60;;;;;;4916467;29;20418;-75
2023/03/16 11:24:49;;;;;;;3.63;3.40;;;10.00;77.90;;;;;;4915951;29;20637;-75
2023/03/16 11:27:28;;;;;;;6.70;6.20;;;10.20;78.60;;;;;;4916587;29;20920;-75
2023/03/16 11:30:23;;;;;;;4.00;3.60;;;10.10;76.60;;;;;;4916572;29;20984;-74
2023/03/16 11:32:52;;;;;;;7.47;4.60;;;10.10;77.90;;;;;;4915979;29;20473;-75
2023/03/16 11:35:22;;;;;;;4.60;4.30;;;10.20;77.30;;;;;;4916285;29;20420;-75
2023/03/16 11:37:48;;;;;;;4.87;4.47;;;10.50;77.50;;;;;;4916140;29;20431;-75
2023/03/16 11:40:37;;;;;;;4.80;4.50;;;10.40;77.30;;;;;;4916433;29;20513;-75
2023/03/16 11:43:21;;;;;;;3.60;3.40;;;10.50;77.70;;;;;;4916036;29;20221;-73
2023/03/16 11:46:23;;;;;;;3.60;3.37;;;10.60;77.70;;;;;;4916336;29;20418;-74
2023/03/16 11:49:04;;;;;;;4.30;3.13;;;10.50;76.70;;;;;;4906615;29;20425;-74
2023/03/16 11:52:04;;;;;;;3.83;3.47;;;10.60;77.20;;;;;;4915181;29;20877;-74
2023/03/16 11:54:41;;;;;;;4.57;4.27;;;10.80;77.20;;;;;;4915468;29;20469;-74
2023/03/16 11:57:10;;;;;;;4.87;4.53;;;10.90;76.00;;;;;;4916264;29;20436;-74
2023/03/16 12:00:17;;;;;;;3.83;3.43;;;11.10;75.50;;;;;;4915534;29;20429;-74
2023/03/16 12:03:10;;;;;;;3.57;3.23;;;11.40;74.50;;;;;;4915664;29;20694;-74
2023/03/16 12:05:59;;;;;;;2.47;2.27;;;11.60;72.90;;;;;;4915419;29;20395;-74
2023/03/16 12:08:37;;;;;;;4.70;4.30;;;11.70;73.20;;;;;;4886285;29;20436;-74
2023/03/16 12:11:24;;;;;;;3.70;3.50;;;11.60;71.00;;;;;;4916579;29;20417;-74
2023/03/16 12:14:00;;;;;;;3.57;3.33;;;11.70;72.00;;;;;;4920269;29;20760;-74
2023/03/16 12:16:41;;;;;;;4.13;3.90;;;11.90;71.10;;;;;;4919237;29;20441;-75
2023/03/16 12:19:22;;;;;;;5.10;4.13;;;12.00;70.80;;;;;;4919542;29;20549;-74
2023/03/16 12:22:00;;;;;;;3.30;3.00;;;12.30;71.30;;;;;;4919009;29;20450;-74
2023/03/16 12:24:31;;;;;;;4.07;3.00;;;12.50;70.00;;;;;;4919055;29;20890;-74
2023/03/16 12:26:58;;;;;;;3.47;3.17;;;12.90;68.80;;;;;;4918908;29;20489;-73
2023/03/16 12:29:34;;;;;;;3.50;3.30;;;13.10;68.70;;;;;;4918325;29;20432;-73
2023/03/16 12:32:12;;;;;;;3.87;3.60;;;13.20;69.60;;;;;;4919636;29;20819;-73
2023/03/16 12:34:55;;;;;;;4.20;3.90;;;13.40;69.00;;;;;;4919228;29;20416;-73
2023/03/16 12:37:34;;;;;;;4.20;4.00;;;12.80;65.50;;;;;;4919451;29;20437;-73
2023/03/16 12:40:08;;;;;;;3.17;2.90;;;12.80;65.90;;;;;;4919546;29;20457;-74
2023/03/16 12:43:09;;;;;;;3.00;2.83;;;12.90;67.70;;;;;;4918563;29;20484;-74
2023/03/16 12:45:49;;;;;;;3.30;3.10;;;13.00;65.70;;;;;;4918718;29;20424;-74
2023/03/16 12:48:23;;;;;;;4.83;3.20;;;12.90;64.80;;;;;;4919214;29;20440;-74
2023/03/16 12:50:58;;;;;;;3.47;3.30;;;12.70;66.50;;;;;;4918626;29;20417;-74
2023/03/16 12:53:50;;;;;;;3.30;3.10;;;12.60;66.30;;;;;;4919439;29;20727;-74
2023/03/16 12:56:31;;;;;;;3.13;2.93;;;12.70;66.30;;;;;;4912645;29;20922;-75
2023/03/16 12:59:04;;;;;;;4.40;3.27;;;12.20;65.40;;;;;;4919176;29;20451;-74
2023/03/16 13:01:40;;;;;;;3.73;3.50;;;12.50;67.20;;;;;;4918504;29;20450;-75
2023/03/16 13:04:14;;;;;;;3.43;3.13;;;12.60;67.40;;;;;;4919048;29;20399;-72
2023/03/16 13:06:50;;;;;;;3.60;3.30;;;12.80;66.40;;;;;;4918403;29;20395;-74
2023/03/16 13:09:24;;;;;;;4.03;3.03;;;12.80;66.40;;;;;;4918912;29;20403;-75
2023/03/16 13:11:50;;;;;;;3.30;3.10;;;12.90;68.80;;;;;;4918157;29;20445;-75